Time;durP1;ratioP1;P1;durP2;ratioP2;P2;SDS_P1;SDS_P2;PMS_P1;PMS_P2;Temp;Humidity;BMP_temperature;BMP_pressure;BME280_temperature;BME280_humidity;BME280_pressure;Samples;Min_cycle;Max_cycle;Signal;HPM_P1;HPM_P2
2023/03/07 00:01:31;;;;;;;23.05;14.18;;;;;;;4.04;74.87;98612.69;5028078;28;20056;-61
2023/03/07 00:04:00;;;;;;;20.50;12.68;;;;;;;3.86;75.32;98620.03;5027369;28;20045;-60
2023/03/07 00:06:28;;;;;;;22.30;14.45;;;;;;;3.89;75.69;98624.13;5028720;28;20507;-60
2023/03/07 00:08:57;;;;;;;20.27;13.48;;;;;;;3.82;75.41;98610.75;5024580;28;20145;-60
2023/03/07 00:11:25;;;;;;;20.25;13.52;;;;;;;3.82;75.33;98597.84;5022169;28;20060;-60
2023/03/07 00:13:53;;;;;;;22.55;14.50;;;;;;;3.84;75.40;98586.47;5027274;28;20053;-60
2023/03/07 00:16:23;;;;;;;20.50;13.23;;;;;;;3.89;74.77;98594.63;5025355;28;20491;-60
2023/03/07 00:18:50;;;;;;;19.38;12.68;;;;;;;3.81;76.31;98600.91;5027238;28;20511;-61
2023/03/07 00:21:20;;;;;;;20.55;13.85;;;;;;;3.85;74.94;98588.13;5026781;28;20060;-60
2023/03/07 00:23:48;;;;;;;19.63;13.00;;;;;;;3.91;74.95;98584.09;5024865;28;20076;-59
2023/03/07 00:26:17;;;;;;;20.15;12.55;;;;;;;3.86;75.75;98587.81;5025908;28;20053;-58
2023/03/07 00:28:47;;;;;;;16.83;11.40;;;;;;;3.84;75.42;98594.75;5025831;28;20053;-59
2023/03/07 00:31:15;;;;;;;19.58;12.40;;;;;;;3.87;75.73;98583.09;5026091;28;20049;-59
2023/03/07 00:33:44;;;;;;;19.88;11.52;;;;;;;3.93;75.46;98589.31;5027308;28;20053;-59
2023/03/07 00:36:13;;;;;;;16.95;11.13;;;;;;;4.01;75.23;98583.00;5027952;28;20053;-59
2023/03/07 00:38:41;;;;;;;15.85;10.70;;;;;;;3.98;75.21;98583.63;5027040;28;20056;-59
2023/03/07 00:41:10;;;;;;;16.98;11.05;;;;;;;4.00;75.15;98587.69;5012906;28;20052;-59
2023/03/07 00:43:38;;;;;;;16.30;11.35;;;;;;;4.00;75.11;98584.13;5026742;28;20050;-59
2023/03/07 00:46:06;;;;;;;14.52;9.68;;;;;;;4.07;76.08;98588.06;5026932;28;20076;-59
2023/03/07 00:48:36;;;;;;;15.50;11.15;;;;;;;4.17;75.28;98583.38;5029488;28;20058;-58
2023/03/07 00:51:06;;;;;;;14.48;9.25;;;;;;;4.14;75.07;98595.06;5031061;28;20045;-59
2023/03/07 00:53:34;;;;;;;13.30;9.52;;;;;;;4.09;75.07;98573.94;5029186;28;20064;-59
2023/03/07 00:56:04;;;;;;;14.18;9.77;;;;;;;4.17;75.11;98573.19;5022578;28;20068;-59
2023/03/07 00:58:33;;;;;;;16.10;10.60;;;;;;;4.29;74.83;98572.56;5032398;28;20060;-60
2023/03/07 01:01:01;;;;;;;12.55;9.25;;;;;;;4.32;75.63;98560.91;5032202;28;20049;-59
2023/03/07 01:03:29;;;;;;;14.57;11.10;;;;;;;4.44;74.65;98566.63;5032272;28;20049;-59
2023/03/07 01:05:56;;;;;;;12.90;9.32;;;;;;;4.44;74.81;98566.63;5031146;28;20054;-59
2023/03/07 01:08:25;;;;;;;12.32;9.45;;;;;;;4.47;74.88;98565.16;5014443;28;20054;-59
2023/03/07 01:10:52;;;;;;;16.52;11.52;;;;;;;4.47;75.87;98565.16;5012205;28;20064;-59
2023/03/07 01:13:20;;;;;;;15.25;10.30;;;;;;;4.48;75.68;98551.06;5029819;28;20049;-59
2023/03/07 01:15:48;;;;;;;14.50;10.02;;;;;;;4.68;75.69;98548.81;5030804;28;20058;-60
2023/03/07 01:18:15;;;;;;;13.15;9.55;;;;;;;4.66;75.98;98545.56;5032417;28;20045;-59
2023/03/07 01:20:42;;;;;;;14.20;10.05;;;;;;;4.78;74.86;98542.16;5032086;28;20411;-59
2023/03/07 01:23:09;;;;;;;13.25;9.27;;;;;;;4.87;74.79;98549.31;5029571;28;20435;-59
2023/03/07 01:25:42;;;;;;;13.23;9.85;;;;;;;4.86;76.20;98533.91;5015159;28;20054;-59
2023/03/07 01:28:13;;;;;;;12.15;8.98;;;;;;;4.81;75.68;98539.59;5028496;28;20053;-59
2023/03/07 01:30:41;;;;;;;10.52;8.60;;;;;;;4.77;75.06;98541.38;5031614;28;20053;-60
2023/03/07 01:33:09;;;;;;;12.43;9.23;;;;;;;4.84;75.10;98530.66;5031594;28;20057;-59
2023/03/07 01:35:37;;;;;;;11.38;8.38;;;;;;;4.85;74.48;98532.28;5031838;28;20057;-59
2023/03/07 01:38:06;;;;;;;10.70;8.20;;;;;;;4.80;73.82;98529.69;5031644;28;20053;-60
2023/03/07 01:40:33;;;;;;;12.35;9.18;;;;;;;4.77;74.14;98529.53;5031970;28;20049;-59
2023/03/07 01:43:29;;;;;;;13.80;9.02;;;;;;;4.81;75.12;98525.78;5018679;28;20048;-58
2023/03/07 01:46:33;;;;;;;15.02;10.27;;;;;;;4.79;75.85;98521.75;5032816;28;20049;-59
2023/03/07 01:49:06;;;;;;;13.48;10.07;;;;;;;4.77;76.13;98518.50;5031800;28;20390;-59
2023/03/07 01:51:36;;;;;;;13.38;9.85;;;;;;;4.91;76.13;98521.88;5030153;27;20093;-58
2023/03/07 01:54:06;;;;;;;10.93;7.75;;;;;;;4.94;75.91;98524.00;5031530;28;20069;-59
2023/03/07 01:56:34;;;;;;;13.35;9.60;;;;;;;4.99;75.94;98520.28;5032018;28;20053;-60
2023/03/07 01:59:03;;;;;;;11.18;8.93;;;;;;;5.07;75.49;98519.47;5030831;28;20057;-60
2023/03/07 02:01:31;;;;;;;12.20;8.80;;;;;;;5.06;75.30;98510.38;5030949;28;20407;-60
2023/03/07 02:04:02;;;;;;;11.57;8.68;;;;;;;5.10;75.49;98513.28;5029985;28;20068;-59
2023/03/07 02:06:31;;;;;;;9.73;7.72;;;;;;;5.21;74.85;98506.28;5030158;28;20419;-59
2023/03/07 02:09:00;;;;;;;10.50;8.50;;;;;;;5.19;75.21;98502.25;5031293;28;20064;-60
2023/03/07 02:11:27;;;;;;;10.43;8.15;;;;;;;5.11;75.31;98501.13;5031318;28;21013;-60
2023/03/07 02:13:54;;;;;;;8.90;7.35;;;;;;;5.16;74.59;98500.94;5031150;28;20052;-60
2023/03/07 02:16:23;;;;;;;10.60;8.48;;;;;;;5.20;75.25;98488.09;5030549;28;20061;-60
2023/03/07 02:18:50;;;;;;;9.43;7.53;;;;;;;5.17;75.08;98505.31;5031451;28;20045;-60
2023/03/07 02:21:30;;;;;;;10.27;8.48;;;;;;;5.17;74.78;98493.47;5030816;28;20046;-60
2023/03/07 02:24:06;;;;;;;9.38;7.68;;;;;;;5.25;74.44;98484.38;5026991;28;20050;-60
2023/03/07 02:26:42;;;;;;;8.60;7.07;;;;;;;5.29;75.34;98480.63;5030256;28;20057;-60
2023/03/07 02:29:10;;;;;;;8.45;7.20;;;;;;;5.30;74.98;98481.44;5015424;28;20050;-60
2023/03/07 02:31:37;;;;;;;9.00;7.28;;;;;;;5.34;74.45;98484.34;5029482;28;20049;-59
2023/03/07 02:34:18;;;;;;;9.52;7.55;;;;;;;5.29;75.04;98474.28;5031018;28;20076;-59
2023/03/07 02:36:46;;;;;;;9.48;7.60;;;;;;;5.28;74.62;98473.47;5030591;28;20057;-60
2023/03/07 02:39:13;;;;;;;10.38;8.45;;;;;;;5.32;74.79;98478.34;5028590;28;20057;-60
2023/03/07 02:41:43;;;;;;;9.93;7.70;;;;;;;5.33;74.94;98464.19;5030063;28;20377;-60
2023/03/07 02:44:10;;;;;;;8.68;7.47;;;;;;;5.38;74.99;98477.03;5030713;28;20049;-60
2023/03/07 02:46:37;;;;;;;8.65;7.32;;;;;;;5.38;74.93;98469.56;5030835;28;20058;-60
2023/03/07 02:49:04;;;;;;;9.23;7.50;;;;;;;5.32;74.97;98470.06;5030736;28;20476;-60
2023/03/07 02:51:32;;;;;;;11.13;8.18;;;;;;;5.41;76.12;98470.84;5030353;28;20061;-60
2023/03/07 02:53:59;;;;;;;8.52;7.30;;;;;;;5.45;75.33;98461.56;5029163;27;20060;-60
2023/03/07 02:56:26;;;;;;;8.95;7.63;;;;;;;5.46;75.32;98465.16;5030617;28;20053;-60
2023/03/07 02:58:55;;;;;;;7.55;6.75;;;;;;;5.44;75.11;98456.41;5030578;28;20061;-60
2023/03/07 03:01:22;;;;;;;10.30;7.45;;;;;;;5.54;74.93;98457.97;5030871;28;20045;-60
2023/03/07 03:03:50;;;;;;;8.93;7.47;;;;;;;5.45;75.09;98455.25;5030616;28;20061;-61
2023/03/07 03:06:17;;;;;;;10.93;8.63;;;;;;;5.49;74.96;98456.19;5030344;28;20057;-59
2023/03/07 03:08:44;;;;;;;8.10;6.88;;;;;;;5.56;75.14;98456.47;5028652;28;20053;-60
2023/03/07 03:11:11;;;;;;;8.70;7.05;;;;;;;5.47;75.26;98458.47;5028564;28;20056;-60
2023/03/07 03:13:39;;;;;;;6.82;5.90;;;;;;;5.51;74.82;98456.69;5030695;28;20053;-60
2023/03/07 03:16:07;;;;;;;7.25;6.25;;;;;;;5.44;74.83;98453.63;5030329;28;20057;-60
2023/03/07 03:18:35;;;;;;;7.97;6.30;;;;;;;5.40;74.50;98452.66;5030161;28;20068;-60
2023/03/07 03:21:07;;;;;;;7.53;6.15;;;;;;;5.36;74.13;98457.22;5030095;28;20049;-60
2023/03/07 03:23:35;;;;;;;7.13;6.00;;;;;;;5.42;74.05;98465.00;5030256;28;20045;-60
2023/03/07 03:26:06;;;;;;;6.95;5.75;;;;;;;5.42;74.35;98450.38;5030612;28;20060;-60
2023/03/07 03:28:34;;;;;;;6.60;5.35;;;;;;;5.51;74.68;98456.69;5029994;28;20061;-60
2023/03/07 03:31:04;;;;;;;5.75;5.10;;;;;;;5.44;74.17;98454.44;5029737;28;20054;-61
2023/03/07 03:33:33;;;;;;;5.72;5.00;;;;;;;5.41;74.28;98452.31;5030303;28;20053;-61
2023/03/07 03:36:07;;;;;;;6.27;5.30;;;;;;;5.46;74.28;98451.34;5030240;28;20080;-63
2023/03/07 03:38:34;;;;;;;5.53;4.50;;;;;;;5.47;74.12;98461.25;5028506;27;20495;-59
2023/03/07 03:41:04;;;;;;;5.15;4.40;;;;;;;5.40;73.80;98449.91;5029801;28;20052;-60
2023/03/07 03:43:31;;;;;;;5.65;5.05;;;;;;;5.34;74.59;98449.28;5030019;28;20403;-60
2023/03/07 03:45:59;;;;;;;5.25;4.75;;;;;;;5.33;74.16;98446.84;5029943;28;20053;-60
2023/03/07 03:48:27;;;;;;;5.60;4.93;;;;;;;5.33;74.72;98446.84;5029497;28;20054;-60
2023/03/07 03:51:03;;;;;;;5.28;4.63;;;;;;;5.35;74.99;98444.56;5029503;28;20065;-60
2023/03/07 03:53:31;;;;;;;4.60;3.90;;;;;;;5.35;74.60;98436.28;5028615;27;20437;-60
2023/03/07 03:56:03;;;;;;;7.00;4.80;;;;;;;5.33;75.22;98441.31;5029434;28;20053;-60
2023/03/07 03:58:31;;;;;;;5.10;4.28;;;;;;;5.36;75.49;98427.66;5030714;28;20060;-60
2023/03/07 04:00:58;;;;;;;4.38;3.95;;;;;;;5.28;74.83;98440.34;5029122;28;20050;-60
2023/03/07 04:03:25;;;;;;;5.22;4.65;;;;;;;5.23;74.31;98437.78;5028003;28;20041;-60
2023/03/07 04:05:52;;;;;;;5.78;4.55;;;;;;;5.31;75.46;98424.25;5049616;28;20063;-60
2023/03/07 04:08:21;;;;;;;6.22;4.80;;;;;;;5.29;75.06;98441.16;5030615;28;20502;-60
2023/03/07 04:10:48;;;;;;;4.88;4.28;;;;;;;5.26;75.36;98436.31;5028398;28;20063;-60
2023/03/07 04:13:15;;;;;;;5.90;4.60;;;;;;;5.18;75.53;98429.66;5030253;28;20365;-60
2023/03/07 04:15:43;;;;;;;7.70;5.35;;;;;;;5.29;75.58;98430.09;5029473;28;20066;-60
2023/03/07 04:18:10;;;;;;;4.82;4.28;;;;;;;5.27;75.88;98421.34;5029569;28;20483;-60
2023/03/07 04:20:38;;;;;;;9.52;5.72;;;;;;;5.27;75.64;98418.59;5029603;28;20415;-61
2023/03/07 04:23:05;;;;;;;7.68;6.20;;;;;;;5.29;75.58;98414.38;5031103;28;20054;-60
2023/03/07 04:25:34;;;;;;;5.85;5.25;;;;;;;5.35;76.01;98414.19;5033712;28;20400;-60
2023/03/07 04:28:01;;;;;;;6.47;5.50;;;;;;;5.34;75.93;98398.78;5033759;28;20064;-60
2023/03/07 04:30:29;;;;;;;7.10;6.28;;;;;;;5.43;76.48;98400.34;5031701;28;20061;-60
2023/03/07 04:32:56;;;;;;;6.75;6.03;;;;;;;5.44;75.71;98395.66;5032943;28;20053;-60
2023/03/07 04:35:23;;;;;;;8.77;7.10;;;;;;;5.55;76.29;98399.66;5032369;28;20054;-60
2023/03/07 04:37:50;;;;;;;8.15;5.85;;;;;;;5.49;75.73;98390.72;5031054;28;20103;-60
2023/03/07 04:40:18;;;;;;;7.93;6.53;;;;;;;5.48;75.78;98385.53;5031390;28;20045;-60
2023/03/07 04:42:46;;;;;;;7.63;6.43;;;;;;;5.44;75.31;98379.09;5032797;28;20468;-60
2023/03/07 04:45:16;;;;;;;7.43;6.32;;;;;;;5.49;75.54;98376.13;5032871;28;20053;-60
2023/03/07 04:47:43;;;;;;;8.20;7.13;;;;;;;5.40;75.82;98375.38;5032095;28;20491;-60
2023/03/07 04:50:11;;;;;;;9.02;6.63;;;;;;;5.38;76.04;98380.41;5032330;28;20057;-60
2023/03/07 04:52:38;;;;;;;8.60;7.38;;;;;;;5.42;75.62;98373.09;5031790;28;20052;-60
2023/03/07 04:55:06;;;;;;;10.05;8.45;;;;;;;5.39;75.75;98370.97;5032803;28;20046;-60
2023/03/07 04:57:33;;;;;;;9.23;8.02;;;;;;;5.43;75.84;98367.22;5032235;28;20057;-60
2023/03/07 05:00:07;;;;;;;9.18;8.10;;;;;;;5.47;75.68;98372.88;5032311;28;20085;-60
2023/03/07 05:02:35;;;;;;;11.93;8.85;;;;;;;5.44;75.87;98371.59;5012677;28;20107;-60
2023/03/07 05:05:02;;;;;;;9.55;8.20;;;;;;;5.40;76.28;98367.09;5018012;28;20069;-60
2023/03/07 05:07:30;;;;;;;10.35;8.85;;;;;;;5.46;75.90;98369.31;5029775;27;20056;-60
2023/03/07 05:09:57;;;;;;;11.70;9.65;;;;;;;5.41;76.20;98361.22;5031473;28;20064;-60
2023/03/07 05:12:25;;;;;;;11.77;8.23;;;;;;;5.51;75.93;98356.47;5031344;28;20060;-60
2023/03/07 05:14:52;;;;;;;10.43;8.45;;;;;;;5.48;75.57;98353.25;5031940;28;20372;-60
2023/03/07 05:17:21;;;;;;;11.25;8.00;;;;;;;5.49;76.06;98354.03;5032169;28;20053;-60
2023/03/07 05:19:48;;;;;;;9.68;7.47;;;;;;;5.49;75.90;98346.56;5032215;28;20057;-60
2023/03/07 05:22:15;;;;;;;9.85;7.22;;;;;;;5.51;75.23;98349.00;5031222;27;20057;-60
2023/03/07 05:24:42;;;;;;;9.10;8.10;;;;;;;5.43;75.25;98342.38;5031913;28;20060;-60
2023/03/07 05:27:10;;;;;;;9.18;7.85;;;;;;;5.42;75.90;98343.53;5031215;28;20487;-59
2023/03/07 05:29:37;;;;;;;9.85;8.23;;;;;;;5.41;75.43;98341.09;5031553;28;20057;-60
2023/03/07 05:32:05;;;;;;;9.60;7.93;;;;;;;5.44;75.72;98330.19;5031364;28;20053;-59
2023/03/07 05:34:33;;;;;;;9.57;7.70;;;;;;;5.43;75.68;98339.59;5031144;28;20052;-60
2023/03/07 05:37:00;;;;;;;9.77;7.53;;;;;;;5.41;75.48;98338.31;5030041;27;20053;-60
2023/03/07 05:39:28;;;;;;;8.90;7.70;;;;;;;5.39;75.56;98346.13;5031648;28;20056;-60
2023/03/07 05:41:55;;;;;;;10.07;8.52;;;;;;;5.39;75.12;98340.59;5024807;28;20045;-59
2023/03/07 05:44:22;;;;;;;9.32;8.00;;;;;;;5.34;75.95;98338.06;5030883;28;20073;-59
2023/03/07 05:46:50;;;;;;;11.80;8.93;;;;;;;5.31;75.73;98341.47;5029272;28;20499;-60
2023/03/07 05:49:17;;;;;;;10.63;8.43;;;;;;;5.33;76.12;98342.75;5030626;28;20054;-60
2023/03/07 05:51:46;;;;;;;10.45;8.13;;;;;;;5.29;76.39;98337.09;5029339;27;20511;-60
2023/03/07 05:54:13;;;;;;;10.20;7.70;;;;;;;5.20;76.53;98339.06;5031786;28;20480;-60
2023/03/07 05:56:40;;;;;;;12.63;9.02;;;;;;;5.13;77.48;98337.97;5030870;28;20064;-60
2023/03/07 05:59:10;;;;;;;11.10;8.40;;;;;;;5.16;77.80;98337.31;5031624;28;20068;-60
2023/03/07 06:01:37;;;;;;;11.50;8.18;;;;;;;5.27;77.56;98336.63;5031111;28;20054;-60
2023/03/07 06:04:04;;;;;;;10.35;8.30;;;;;;;5.29;77.13;98336.25;5031144;28;20057;-60
2023/03/07 06:06:31;;;;;;;10.80;9.65;;;;;;;5.23;76.86;98329.34;5028914;27;20045;-60
2023/03/07 06:09:00;;;;;;;10.93;8.82;;;;;;;5.23;76.65;98332.09;5027348;27;20415;-60
2023/03/07 06:11:27;;;;;;;10.48;8.60;;;;;;;5.19;77.18;98331.94;5029139;28;20054;-60
2023/03/07 06:13:54;;;;;;;11.32;8.48;;;;;;;5.18;77.08;98341.34;5029013;28;20049;-60
2023/03/07 06:16:22;;;;;;;11.40;9.02;;;;;;;5.09;76.57;98324.81;5027806;28;20045;-59
2023/03/07 06:18:49;;;;;;;9.90;8.38;;;;;;;5.15;76.98;98319.13;5021783;28;20583;-59
2023/03/07 06:21:19;;;;;;;10.00;8.27;;;;;;;5.05;76.22;98323.88;5021760;27;20068;-60
2023/03/07 06:23:46;;;;;;;;;;;;;;;5.08;76.45;98320.47;5028876;28;20050;-60
2023/03/07 06:26:14;;;;;;;10.32;7.85;;;;;;;5.09;76.47;98327.59;5025460;28;20443;-59
2023/03/07 06:28:42;;;;;;;11.30;8.10;;;;;;;5.15;76.64;98321.91;5026844;28;20052;-60
2023/03/07 06:31:10;;;;;;;9.70;8.02;;;;;;;4.95;76.92;98326.19;5027395;28;20492;-60
2023/03/07 06:33:38;;;;;;;9.52;8.05;;;;;;;4.96;76.34;98320.34;5029784;27;20057;-60
2023/03/07 06:36:07;;;;;;;9.02;7.88;;;;;;;5.04;77.57;98330.53;5026178;28;20107;-59
2023/03/07 06:38:34;;;;;;;11.93;9.20;;;;;;;5.11;77.53;98319.00;5027636;28;20057;-59
2023/03/07 06:41:02;;;;;;;12.20;9.52;;;;;;;5.17;77.26;98317.66;5027714;28;20056;-59
2023/03/07 06:43:30;;;;;;;10.85;9.40;;;;;;;5.12;77.10;98326.09;5026754;28;20404;-59
2023/03/07 06:45:58;;;;;;;11.45;8.88;;;;;;;5.16;77.09;98310.50;5024655;28;20056;-59
2023/03/07 06:48:25;;;;;;;12.30;10.20;;;;;;;5.18;76.84;98313.75;5030528;28;20056;-59
2023/03/07 06:50:52;;;;;;;12.65;9.85;;;;;;;5.35;76.51;98310.09;5028852;27;20062;-60
2023/03/07 06:53:20;;;;;;;12.13;9.25;;;;;;;5.38;76.40;98316.91;5031260;28;20156;-59
2023/03/07 06:55:49;;;;;;;10.88;9.05;;;;;;;5.44;76.15;98312.81;5030994;28;20075;-59
2023/03/07 06:58:16;;;;;;;13.63;9.98;;;;;;;5.48;76.23;98313.75;5030984;28;20060;-59
2023/03/07 07:00:45;;;;;;;9.73;8.50;;;;;;;5.40;75.91;98307.16;5030015;27;20060;-59
2023/03/07 07:03:14;;;;;;;10.48;8.35;;;;;;;5.50;75.64;98305.94;5030761;27;20057;-59
2023/03/07 07:05:41;;;;;;;10.48;8.77;;;;;;;5.49;75.94;98315.38;5029970;28;20049;-59
2023/03/07 07:08:08;;;;;;;10.13;8.45;;;;;;;5.49;75.46;98315.38;5026960;27;20384;-59
2023/03/07 07:10:35;;;;;;;10.95;9.43;;;;;;;5.51;75.55;98313.09;5025253;28;20503;-60
2023/03/07 07:13:03;;;;;;;12.38;10.48;;;;;;;5.67;75.51;98299.53;5026235;28;20057;-59
2023/03/07 07:15:30;;;;;;;10.63;9.48;;;;;;;5.71;75.81;98297.69;5027294;28;20050;-60
2023/03/07 07:18:04;;;;;;;10.88;8.23;;;;;;;5.73;75.19;98308.41;5026164;28;20407;-59
2023/03/07 07:20:32;;;;;;;11.15;9.05;;;;;;;5.71;74.84;98305.97;5025379;28;20065;-60
2023/03/07 07:22:59;;;;;;;11.40;9.00;;;;;;;5.63;74.79;98304.09;5025492;28;20053;-60
2023/03/07 07:25:26;;;;;;;11.73;9.25;;;;;;;5.65;74.79;98299.06;5028272;28;20485;-60
2023/03/07 07:27:53;;;;;;;11.48;9.30;;;;;;;5.78;75.54;98297.19;5026020;28;20056;-59
2023/03/07 07:30:21;;;;;;;11.57;9.35;;;;;;;5.76;74.79;98299.47;5026585;28;20056;-60
2023/03/07 07:32:48;;;;;;;11.00;8.93;;;;;;;5.81;74.78;98290.97;5026189;28;20049;-60
2023/03/07 07:35:17;;;;;;;9.88;8.20;;;;;;;5.76;74.75;98294.75;5023469;28;20076;-60
2023/03/07 07:37:44;;;;;;;10.98;9.30;;;;;;;5.88;75.05;98297.56;5025507;28;20057;-59
2023/03/07 07:40:13;;;;;;;9.75;8.75;;;;;;;5.85;74.86;98301.00;5030190;28;20503;-59
2023/03/07 07:42:42;;;;;;;11.65;9.18;;;;;;;5.85;74.65;98292.72;5029631;28;20060;-59
2023/03/07 07:45:10;;;;;;;10.73;9.05;;;;;;;5.85;75.47;98302.97;5029785;28;20523;-60
2023/03/07 07:47:37;;;;;;;10.23;9.02;;;;;;;5.61;74.64;98296.16;5028276;28;20414;-60
2023/03/07 07:50:05;;;;;;;14.13;11.00;;;;;;;5.73;75.32;98300.13;5028204;28;20053;-60
2023/03/07 07:52:33;;;;;;;11.43;9.32;;;;;;;5.77;75.31;98301.06;5029198;28;20138;-60
2023/03/07 07:55:01;;;;;;;12.13;10.40;;;;;;;5.66;75.09;98295.94;5029539;28;20480;-60
2023/03/07 07:57:28;;;;;;;12.43;10.98;;;;;;;5.63;74.92;98285.56;5028785;28;20111;-59
2023/03/07 07:59:55;;;;;;;15.45;12.80;;;;;;;5.59;75.50;98287.38;5029696;28;20053;-60
2023/03/07 08:02:29;;;;;;;13.90;12.38;;;;;;;5.59;75.30;98281.88;5029640;28;20053;-59
2023/03/07 08:04:56;;;;;;;14.73;12.20;;;;;;;5.58;75.19;98288.50;5029840;28;20057;-59
2023/03/07 08:07:23;;;;;;;17.55;14.43;;;;;;;5.59;76.15;98286.59;5027402;28;20049;-59
2023/03/07 08:09:52;;;;;;;20.67;14.05;;;;;;;5.60;76.19;98274.38;5030362;28;20053;-59
2023/03/07 08:12:19;;;;;;;19.95;15.70;;;;;;;5.63;76.57;98274.53;5029466;28;20463;-59
2023/03/07 08:14:46;;;;;;;20.30;15.02;;;;;;;5.69;77.12;98280.63;5029138;28;20053;-59
2023/03/07 08:17:14;;;;;;;18.60;15.63;;;;;;;5.75;76.81;98278.50;5029425;28;20415;-59
2023/03/07 08:19:41;;;;;;;16.70;13.27;;;;;;;5.60;76.80;98275.19;5028833;28;20057;-60
2023/03/07 08:22:08;;;;;;;16.00;13.48;;;;;;;5.66;76.43;98271.06;5027058;28;20395;-58
2023/03/07 08:24:37;;;;;;;18.83;14.48;;;;;;;5.64;76.58;98281.66;5029196;28;20053;-60
2023/03/07 08:27:05;;;;;;;19.15;15.30;;;;;;;5.77;76.94;98284.50;5029258;28;20064;-59
2023/03/07 08:29:34;;;;;;;18.38;15.05;;;;;;;5.74;76.28;98271.38;5028928;28;20061;-59
2023/03/07 08:32:01;;;;;;;16.90;14.05;;;;;;;5.88;76.55;98275.47;5028036;28;20064;-59
2023/03/07 08:34:28;;;;;;;16.80;14.15;;;;;;;5.84;75.73;98279.25;5010548;28;20053;-59
2023/03/07 08:36:55;;;;;;;16.35;14.32;;;;;;;5.96;76.17;98275.75;5013104;28;20065;-59
2023/03/07 08:39:22;;;;;;;19.00;15.02;;;;;;;5.97;76.45;98272.66;5029322;28;20480;-59
2023/03/07 08:41:50;;;;;;;18.20;14.63;;;;;;;5.91;76.05;98279.50;5026750;28;20060;-59
2023/03/07 08:44:18;;;;;;;21.10;14.65;;;;;;;5.91;75.49;98287.81;5029444;28;20400;-59
2023/03/07 08:46:45;;;;;;;19.60;16.58;;;;;;;5.86;76.29;98288.00;5029950;28;20412;-59
2023/03/07 08:49:13;;;;;;;22.08;17.27;;;;;;;5.99;76.90;98280.63;5029133;28;20060;-59
2023/03/07 08:51:40;;;;;;;23.23;17.40;;;;;;;5.99;76.88;98284.19;5028414;28;20057;-59
2023/03/07 08:54:07;;;;;;;19.23;16.17;;;;;;;5.96;77.35;98282.09;5027712;28;20053;-59
2023/03/07 08:56:35;;;;;;;25.60;18.10;;;;;;;5.97;77.91;98278.19;5028449;28;20050;-59
2023/03/07 08:59:02;;;;;;;26.75;19.75;;;;;;;5.96;79.26;98276.56;5029208;28;20065;-59
2023/03/07 09:01:31;;;;;;;23.42;16.42;;;;;;;5.86;79.62;98274.19;5027241;28;20054;-59
2023/03/07 09:03:58;;;;;;;28.88;20.55;;;;;;;5.86;79.59;98266.72;5028488;28;20060;-59
2023/03/07 09:06:26;;;;;;;24.52;17.65;;;;;;;5.74;79.28;98274.13;5029525;28;20054;-59
2023/03/07 09:08:53;;;;;;;28.48;19.30;;;;;;;5.73;80.26;98280.78;5030788;28;20411;-59
2023/03/07 09:11:20;;;;;;;28.73;21.10;;;;;;;5.61;80.47;98290.63;5031629;28;20053;-60
2023/03/07 09:13:47;;;;;;;25.63;17.45;;;;;;;5.59;80.57;98289.34;5032661;28;20072;-59
2023/03/07 09:16:15;;;;;;;25.08;18.60;;;;;;;5.52;80.87;98291.81;5031842;28;20049;-59
2023/03/07 09:18:43;;;;;;;27.40;18.05;;;;;;;5.45;81.90;98298.66;5022331;28;20054;-59
2023/03/07 09:21:10;;;;;;;38.08;24.00;;;;;;;5.52;81.92;98289.84;5012850;28;20389;-59
2023/03/07 09:23:38;;;;;;;31.25;20.55;;;;;;;5.56;81.84;98287.25;5022764;27;20049;-59
2023/03/07 09:26:05;;;;;;;26.60;18.27;;;;;;;5.64;82.09;98294.66;5031583;28;20411;-59
2023/03/07 09:28:32;;;;;;;22.48;15.95;;;;;;;5.51;82.43;98291.00;5031933;28;20057;-59
2023/03/07 09:31:00;;;;;;;24.70;18.25;;;;;;;5.44;82.56;98293.50;5031919;28;20060;-59
2023/03/07 09:33:27;;;;;;;34.60;21.95;;;;;;;5.53;82.50;98285.97;5031964;28;20448;-59
2023/03/07 09:35:56;;;;;;;28.17;19.77;;;;;;;5.72;82.89;98288.28;5031641;28;20057;-59
2023/03/07 09:38:23;;;;;;;25.35;17.70;;;;;;;5.79;83.85;98296.81;5029927;28;20061;-59
2023/03/07 09:40:51;;;;;;;26.27;19.55;;;;;;;5.78;83.12;98288.88;5030786;27;20054;-59
2023/03/07 09:43:20;;;;;;;29.52;20.85;;;;;;;5.76;83.03;98296.69;5031869;28;20045;-59
2023/03/07 09:45:58;;;;;;;31.15;20.88;;;;;;;5.80;82.15;98303.16;5032155;28;20053;-59
2023/03/07 09:48:57;;;;;;;34.13;22.33;;;;;;;5.93;81.92;98296.56;5031866;28;20053;-59
2023/03/07 09:51:36;;;;;;;23.13;16.80;;;;;;;5.99;81.72;98297.22;5031442;28;20083;-59
2023/03/07 09:54:09;;;;;;;25.13;17.70;;;;;;;6.01;81.89;98308.72;5030841;27;20061;-59
2023/03/07 09:56:42;;;;;;;25.88;17.70;;;;;;;6.08;81.79;98301.50;5031389;28;20053;-59
2023/03/07 09:59:15;;;;;;;26.63;18.23;;;;;;;6.17;82.20;98303.38;5031624;28;20057;-59
2023/03/07 10:01:45;;;;;;;23.80;16.55;;;;;;;6.11;81.44;98313.84;5031469;28;20068;-59
2023/03/07 10:04:17;;;;;;;27.73;18.67;;;;;;;6.19;81.30;98312.94;5031868;28;20049;-59
2023/03/07 10:06:51;;;;;;;22.92;16.17;;;;;;;6.25;80.77;98328.19;5031186;28;20061;-59
2023/03/07 10:09:21;;;;;;;14.75;11.18;;;;;;;6.25;80.30;98328.19;5029688;27;20158;-58
2023/03/07 10:12:08;;;;;;;14.68;11.10;;;;;;;6.19;80.24;98328.72;5030386;28;20064;-59
2023/03/07 10:14:52;;;;;;;12.90;9.80;;;;;;;6.21;79.51;98334.72;5031566;28;20385;-58
2023/03/07 10:17:29;;;;;;;13.25;9.77;;;;;;;6.22;79.29;98328.06;5031099;28;20403;-60
2023/03/07 10:20:07;;;;;;;14.07;10.73;;;;;;;6.23;79.01;98337.97;5030138;28;20049;-58
2023/03/07 10:22:42;;;;;;;14.90;10.88;;;;;;;6.24;78.70;98347.88;5031254;28;20480;-58
2023/03/07 10:25:24;;;;;;;15.75;12.30;;;;;;;6.16;79.02;98344.03;5029099;28;20054;-59
2023/03/07 10:27:54;;;;;;;20.27;13.80;;;;;;;6.25;79.26;98346.72;5031283;28;20053;-59
2023/03/07 10:30:23;;;;;;;17.00;12.15;;;;;;;6.27;79.25;98350.75;5031537;28;20050;-59
2023/03/07 10:32:56;;;;;;;13.93;11.13;;;;;;;6.30;78.89;98352.06;5030982;28;20050;-59
2023/03/07 10:35:37;;;;;;;15.40;11.70;;;;;;;6.29;78.88;98364.25;5030749;28;20049;-59
2023/03/07 10:38:19;;;;;;;14.38;11.20;;;;;;;6.28;78.75;98365.44;5029622;28;20094;-59
2023/03/07 10:40:50;;;;;;;13.05;9.85;;;;;;;6.34;78.48;98360.47;5030393;28;20054;-59
2023/03/07 10:43:24;;;;;;;12.18;10.30;;;;;;;6.36;78.02;98372.00;5031116;28;20057;-59
2023/03/07 10:45:59;;;;;;;10.07;8.95;;;;;;;6.38;77.66;98364.97;5030986;28;20498;-59
2023/03/07 10:48:28;;;;;;;13.20;9.93;;;;;;;6.38;77.52;98370.50;5030537;28;20056;-59
2023/03/07 10:51:05;;;;;;;15.38;11.55;;;;;;;6.37;77.28;98363.38;5030453;28;20393;-59
2023/03/07 10:53:36;;;;;;;11.43;9.38;;;;;;;6.40;77.54;98357.16;5029590;28;20049;-59
2023/03/07 10:56:13;;;;;;;11.68;9.80;;;;;;;6.47;76.93;98368.50;5030963;28;20340;-59
2023/03/07 10:58:58;;;;;;;10.93;8.70;;;;;;;6.42;76.74;98365.94;5030435;28;20475;-59
2023/03/07 11:01:26;;;;;;;9.93;8.93;;;;;;;6.48;76.10;98370.09;5027808;27;20491;-59
2023/03/07 11:03:57;;;;;;;9.85;8.07;;;;;;;6.53;76.55;98371.88;5028779;28;20068;-59
2023/03/07 11:06:34;;;;;;;13.52;9.95;;;;;;;6.59;76.36;98376.03;5030122;28;20049;-59
2023/03/07 11:09:18;;;;;;;11.98;10.23;;;;;;;6.67;76.34;98388.16;5030149;27;20061;-59
2023/03/07 11:11:52;;;;;;;13.23;9.70;;;;;;;6.77;75.53;98379.44;5031593;28;20423;-60
2023/03/07 11:14:21;;;;;;;11.65;9.13;;;;;;;6.88;75.95;98371.53;5030852;28;20061;-60
2023/03/07 11:16:52;;;;;;;10.20;8.70;;;;;;;7.03;75.86;98370.84;5030538;28;20050;-60
2023/03/07 11:19:32;;;;;;;10.70;8.05;;;;;;;7.20;74.49;98372.66;5030851;28;20058;-60
2023/03/07 11:22:02;;;;;;;10.73;8.45;;;;;;;7.32;74.65;98371.84;5030319;28;20061;-60
2023/03/07 11:24:36;;;;;;;8.10;7.30;;;;;;;7.41;75.01;98371.72;5029020;27;20069;-60
2023/03/07 11:27:04;;;;;;;8.82;7.93;;;;;;;7.39;74.16;98369.31;5030347;28;20477;-60
2023/03/07 11:29:33;;;;;;;9.32;8.20;;;;;;;7.31;74.32;98373.81;5030614;28;20056;-60
2023/03/07 11:32:12;;;;;;;10.05;8.63;;;;;;;7.25;74.32;98364.09;5030566;28;20056;-60
2023/03/07 11:34:47;;;;;;;8.13;6.77;;;;;;;7.20;74.42;98366.28;5030490;28;20069;-60
2023/03/07 11:37:24;;;;;;;10.40;9.13;;;;;;;7.22;74.56;98370.31;5029904;28;20463;-60
2023/03/07 11:40:03;;;;;;;11.50;8.68;;;;;;;7.21;74.32;98381.75;5028896;28;20056;-60
2023/03/07 11:42:34;;;;;;;9.75;8.75;;;;;;;7.14;73.15;98379.56;5029024;28;20082;-60
2023/03/07 11:45:27;;;;;;;11.25;9.20;;;;;;;7.05;74.27;98371.31;5029780;28;20064;-60